Time;durP1;ratioP1;P1;durP2;ratioP2;P2;SDS_P1;SDS_P2;PMS_P1;PMS_P2;Temp;Humidity;BMP_temperature;BMP_pressure;BME280_temperature;BME280_humidity;BME280_pressure;Samples;Min_cycle;Max_cycle;Signal;HPM_P1;HPM_P2
2021/07/03 00:00:25;;;;;;;8.20;6.05;;;18.50;68.30;;;;;;5023718;28;20361;-72
2021/07/03 00:02:50;;;;;;;8.63;6.15;;;18.40;68.60;;;;;;5008120;28;20038;-73
2021/07/03 00:05:16;;;;;;;11.85;6.40;;;18.40;68.80;;;;;;5040520;28;20034;-73
2021/07/03 00:07:41;;;;;;;12.52;6.25;;;18.30;68.60;;;;;;5023645;28;20061;-73
2021/07/03 00:10:07;;;;;;;7.85;6.20;;;18.30;68.70;;;;;;5023634;28;20365;-73
2021/07/03 00:12:33;;;;;;;10.75;6.20;;;18.20;68.90;;;;;;5023423;28;20085;-73
2021/07/03 00:14:59;;;;;;;10.20;6.28;;;18.10;69.00;;;;;;5024229;28;20029;-73
2021/07/03 00:17:24;;;;;;;8.68;6.00;;;18.10;69.00;;;;;;5021969;28;20102;-73
2021/07/03 00:19:50;;;;;;;8.50;5.55;;;18.10;69.00;;;;;;5023470;28;20380;-73
2021/07/03 00:22:15;;;;;;;9.10;6.28;;;18.10;68.90;;;;;;5007081;28;20156;-73
2021/07/03 00:24:41;;;;;;;10.52;6.80;;;18.00;68.90;;;;;;5024344;28;20034;-73
2021/07/03 00:27:06;;;;;;;9.48;6.65;;;17.90;69.00;;;;;;5040627;28;20032;-74
2021/07/03 00:29:32;;;;;;;9.38;6.00;;;17.80;69.40;;;;;;5023719;28;20038;-74
2021/07/03 00:31:57;;;;;;;10.23;6.68;;;17.80;69.80;;;;;;5023437;28;20037;-74
2021/07/03 00:34:23;;;;;;;10.45;6.57;;;17.80;69.60;;;;;;5023611;28;20046;-73
2021/07/03 00:36:49;;;;;;;11.27;6.30;;;17.80;69.80;;;;;;5006692;28;20093;-73
2021/07/03 00:39:14;;;;;;;12.27;6.80;;;17.80;69.50;;;;;;5023600;28;20170;-73
2021/07/03 00:41:40;;;;;;;8.90;6.28;;;17.70;69.60;;;;;;5006932;28;20041;-73
2021/07/03 00:44:05;;;;;;;10.55;6.22;;;17.60;70.00;;;;;;5023325;28;20033;-74
2021/07/03 00:46:31;;;;;;;10.10;6.32;;;17.70;69.80;;;;;;5023323;28;20033;-73
2021/07/03 00:48:56;;;;;;;8.82;6.18;;;17.60;69.80;;;;;;5023412;28;20321;-73
2021/07/03 00:51:22;;;;;;;9.32;6.38;;;17.60;69.60;;;;;;5006356;28;20186;-73
2021/07/03 00:53:47;;;;;;;9.93;6.20;;;17.50;70.10;;;;;;5024124;28;20034;-73
2021/07/03 00:56:13;;;;;;;9.05;6.03;;;17.60;70.00;;;;;;5024039;28;20097;-73
2021/07/03 00:58:38;;;;;;;8.35;6.28;;;17.50;69.90;;;;;;5023974;28;20042;-73
2021/07/03 01:01:04;;;;;;;8.18;6.32;;;17.50;69.60;;;;;;5023904;28;20260;-73
2021/07/03 01:03:29;;;;;;;10.93;6.57;;;17.40;69.80;;;;;;5022992;28;20037;-73
2021/07/03 01:05:55;;;;;;;10.07;6.05;;;17.40;70.00;;;;;;5024673;28;20061;-73
2021/07/03 01:08:20;;;;;;;11.07;6.75;;;17.50;69.70;;;;;;5024397;28;20038;-73
2021/07/03 01:10:46;;;;;;;9.70;6.40;;;17.40;69.70;;;;;;5023693;28;20079;-72
2021/07/03 01:13:12;;;;;;;12.35;6.53;;;17.30;70.00;;;;;;5023535;28;20038;-73
2021/07/03 01:15:37;;;;;;;7.85;6.35;;;17.30;69.80;;;;;;5022638;28;20040;-73
2021/07/03 01:18:03;;;;;;;8.63;6.10;;;17.30;69.90;;;;;;5024511;28;20033;-73
2021/07/03 01:20:29;;;;;;;11.38;6.93;;;17.30;69.80;;;;;;5023044;28;20084;-73
2021/07/03 01:22:55;;;;;;;9.05;6.13;;;17.30;69.80;;;;;;5022779;28;20101;-73
2021/07/03 01:25:20;;;;;;;9.55;6.07;;;17.30;69.80;;;;;;5022516;28;20064;-73
2021/07/03 01:28:03;;;;;;;8.95;6.80;;;17.10;70.50;;;;;;5023016;28;20030;-73
2021/07/03 01:30:29;;;;;;;13.85;7.28;;;17.10;70.90;;;;;;5022510;28;20034;-73
2021/07/03 01:32:55;;;;;;;10.63;6.53;;;17.10;71.30;;;;;;5023178;28;20034;-73
2021/07/03 01:35:24;;;;;;;12.57;6.50;;;17.10;71.30;;;;;;5022850;28;20037;-73
2021/07/03 01:37:50;;;;;;;9.43;6.43;;;17.10;71.40;;;;;;5039064;28;20241;-73
2021/07/03 01:40:16;;;;;;;10.95;6.57;;;17.00;71.90;;;;;;5038770;28;20030;-73
2021/07/03 01:42:41;;;;;;;9.45;6.45;;;16.90;72.20;;;;;;5022652;28;20030;-73
2021/07/03 01:45:08;;;;;;;10.88;6.53;;;16.90;72.30;;;;;;5022898;28;20064;-72
2021/07/03 01:47:33;;;;;;;9.40;6.70;;;17.00;72.00;;;;;;5022867;28;20030;-72
2021/07/03 01:49:59;;;;;;;9.32;6.57;;;17.10;71.30;;;;;;5022644;28;20089;-72
2021/07/03 01:52:24;;;;;;;9.05;6.45;;;17.10;70.80;;;;;;5023493;28;20038;-72
2021/07/03 01:54:50;;;;;;;9.63;6.65;;;16.80;71.30;;;;;;5022487;28;20056;-73
2021/07/03 01:57:15;;;;;;;11.77;6.38;;;16.90;71.20;;;;;;5023102;28;20025;-73
2021/07/03 01:59:41;;;;;;;10.45;6.10;;;17.00;70.90;;;;;;5023253;28;20084;-73
2021/07/03 02:02:06;;;;;;;10.23;6.65;;;16.90;70.70;;;;;;5022745;28;20038;-73
2021/07/03 02:04:32;;;;;;;8.88;6.40;;;16.90;70.60;;;;;;5025160;28;20030;-73
2021/07/03 02:06:58;;;;;;;8.10;6.30;;;16.80;71.00;;;;;;5026827;28;20038;-73
2021/07/03 02:09:23;;;;;;;9.98;6.78;;;16.80;70.80;;;;;;5027496;28;20057;-73
2021/07/03 02:11:49;;;;;;;9.95;6.38;;;16.80;70.90;;;;;;5026514;28;20084;-73
2021/07/03 02:14:14;;;;;;;10.98;6.53;;;16.70;71.20;;;;;;5026193;28;20317;-73
2021/07/03 02:16:40;;;;;;;10.68;6.63;;;16.70;71.20;;;;;;5026732;28;20436;-73
2021/07/03 02:19:06;;;;;;;8.43;5.97;;;16.60;71.80;;;;;;5025643;28;20105;-73
2021/07/03 02:21:32;;;;;;;10.93;6.22;;;16.70;71.10;;;;;;5025474;28;20048;-72
2021/07/03 02:23:58;;;;;;;9.40;6.40;;;16.80;70.90;;;;;;5025912;28;20325;-73
2021/07/03 02:26:24;;;;;;;10.05;6.03;;;16.80;70.50;;;;;;5027014;28;20253;-72
2021/07/03 02:28:50;;;;;;;9.07;6.30;;;16.70;70.50;;;;;;5025443;28;20034;-73
2021/07/03 02:31:16;;;;;;;11.30;7.10;;;16.60;70.80;;;;;;5026399;28;20092;-73
2021/07/03 02:33:41;;;;;;;8.90;6.10;;;16.60;70.70;;;;;;5026320;28;20088;-72
2021/07/03 02:36:07;;;;;;;8.65;6.15;;;16.60;70.80;;;;;;5027008;28;20033;-72
2021/07/03 02:38:32;;;;;;;9.50;6.72;;;16.60;70.80;;;;;;5025755;28;20037;-72
2021/07/03 02:40:58;;;;;;;9.30;6.13;;;16.50;71.00;;;;;;5026712;28;20034;-72
2021/07/03 02:43:24;;;;;;;10.60;6.30;;;16.60;70.60;;;;;;5025361;28;20089;-73
2021/07/03 02:45:49;;;;;;;8.20;6.15;;;16.40;70.70;;;;;;5025263;28;20341;-73
2021/07/03 02:48:15;;;;;;;10.05;6.15;;;16.30;71.20;;;;;;5025636;28;20033;-72
2021/07/03 02:50:40;;;;;;;9.15;6.40;;;16.30;71.00;;;;;;5026621;28;20230;-72
2021/07/03 02:53:06;;;;;;;10.05;5.97;;;16.30;71.50;;;;;;5025180;28;20030;-73
2021/07/03 02:55:32;;;;;;;12.25;6.78;;;16.30;71.10;;;;;;5025391;28;20034;-72
2021/07/03 02:57:57;;;;;;;10.15;6.25;;;16.30;71.40;;;;;;5026089;28;20034;-72
2021/07/03 03:00:23;;;;;;;10.55;6.07;;;16.20;71.80;;;;;;5025780;28;20030;-72
2021/07/03 03:02:48;;;;;;;9.45;5.90;;;16.30;71.60;;;;;;5025493;28;20037;-72
2021/07/03 03:05:14;;;;;;;8.18;5.80;;;16.30;71.00;;;;;;5026269;28;20085;-72
2021/07/03 03:07:40;;;;;;;8.85;6.10;;;16.10;71.60;;;;;;5025777;28;20225;-73
2021/07/03 03:10:07;;;;;;;8.07;5.85;;;16.10;71.50;;;;;;5024828;28;20048;-72
2021/07/03 03:12:33;;;;;;;8.73;6.15;;;16.20;71.40;;;;;;5024581;28;20033;-72
2021/07/03 03:14:59;;;;;;;8.35;6.45;;;16.10;71.20;;;;;;5024394;28;20029;-73
2021/07/03 03:17:24;;;;;;;10.15;6.28;;;15.90;71.90;;;;;;5024630;28;20224;-73
2021/07/03 03:19:50;;;;;;;9.57;6.53;;;15.90;72.30;;;;;;5024360;28;20033;-72
2021/07/03 03:22:16;;;;;;;9.90;6.10;;;16.10;71.70;;;;;;5025770;28;20092;-73
2021/07/03 03:24:41;;;;;;;9.32;6.18;;;16.10;71.20;;;;;;5040994;28;20037;-73
2021/07/03 03:27:07;;;;;;;8.70;6.07;;;15.90;71.80;;;;;;5041573;28;20037;-73
2021/07/03 03:29:32;;;;;;;8.20;5.70;;;15.80;72.60;;;;;;5025908;28;20041;-73
2021/07/03 03:31:58;;;;;;;9.13;5.78;;;16.00;72.20;;;;;;5007740;28;20038;-73
2021/07/03 03:34:23;;;;;;;11.45;6.22;;;16.00;71.90;;;;;;5023904;28;20030;-73
2021/07/03 03:36:49;;;;;;;10.38;5.78;;;16.10;71.70;;;;;;5025733;28;20377;-73
2021/07/03 03:39:14;;;;;;;8.05;5.78;;;16.10;71.50;;;;;;5026148;28;20030;-73
2021/07/03 03:41:40;;;;;;;9.75;5.65;;;15.90;72.00;;;;;;5024509;28;20034;-73
2021/07/03 03:44:05;;;;;;;9.40;5.80;;;16.00;72.40;;;;;;5024341;28;20025;-73
2021/07/03 03:46:31;;;;;;;7.28;5.53;;;16.10;71.80;;;;;;5025348;28;20080;-73
2021/07/03 03:48:57;;;;;;;7.82;5.75;;;16.10;71.50;;;;;;5024091;28;20229;-73
2021/07/03 03:51:22;;;;;;;11.30;6.05;;;16.10;71.30;;;;;;5024131;28;20033;-73
2021/07/03 03:53:48;;;;;;;8.43;5.78;;;16.00;71.90;;;;;;5024894;28;20061;-73
2021/07/03 03:56:13;;;;;;;11.45;6.03;;;15.90;71.90;;;;;;5024870;28;20038;-77
2021/07/03 03:58:39;;;;;;;11.82;5.57;;;15.90;71.90;;;;;;5023670;28;20034;-72
2021/07/03 04:01:04;;;;;;;9.25;6.13;;;15.80;72.50;;;;;;5010538;28;20025;-72
2021/07/03 04:03:30;;;;;;;10.23;5.85;;;15.90;72.50;;;;;;5024709;28;20096;-72
2021/07/03 04:05:55;;;;;;;9.73;5.90;;;15.80;73.10;;;;;;5024423;28;20057;-73
2021/07/03 04:08:21;;;;;;;8.48;5.45;;;15.80;72.90;;;;;;5025030;28;20337;-72
2021/07/03 04:10:46;;;;;;;9.05;6.28;;;15.90;72.70;;;;;;5024627;28;20041;-72
2021/07/03 04:13:12;;;;;;;10.45;5.85;;;15.80;72.80;;;;;;5024669;28;20041;-73
2021/07/03 04:15:37;;;;;;;11.15;6.05;;;15.80;73.20;;;;;;5024466;28;20199;-72
2021/07/03 04:18:03;;;;;;;10.52;6.43;;;16.00;73.20;;;;;;5025230;28;20050;-73
2021/07/03 04:20:28;;;;;;;9.02;5.80;;;16.10;73.10;;;;;;5023144;28;20033;-71
2021/07/03 04:22:54;;;;;;;9.00;5.93;;;16.20;72.70;;;;;;5023696;28;20046;-72
2021/07/03 04:25:20;;;;;;;7.65;5.60;;;16.30;72.40;;;;;;5024268;28;20044;-72
2021/07/03 04:27:45;;;;;;;9.60;6.15;;;16.20;72.50;;;;;;5023343;28;20029;-72
2021/07/03 04:30:12;;;;;;;9.82;5.57;;;16.20;72.80;;;;;;5007210;28;20076;-73
2021/07/03 04:32:37;;;;;;;10.38;5.82;;;16.10;73.40;;;;;;5023380;28;20030;-72
2021/07/03 04:35:04;;;;;;;8.45;5.60;;;16.10;73.80;;;;;;5024351;28;20294;-72
2021/07/03 04:37:30;;;;;;;8.35;5.72;;;16.10;73.90;;;;;;5007078;28;20030;-72
2021/07/03 04:39:55;;;;;;;7.20;5.40;;;16.20;73.70;;;;;;5023337;28;20026;-72
2021/07/03 04:42:21;;;;;;;10.85;5.50;;;16.30;73.20;;;;;;5024078;28;20038;-73
2021/07/03 04:44:46;;;;;;;10.68;5.70;;;16.30;73.40;;;;;;5023476;28;20093;-70
2021/07/03 04:47:12;;;;;;;8.82;6.00;;;16.20;73.70;;;;;;5024403;28;20041;-72
2021/07/03 04:49:37;;;;;;;9.90;5.45;;;16.30;73.60;;;;;;5024311;28;20034;-71
2021/07/03 04:52:03;;;;;;;9.43;5.50;;;16.30;73.40;;;;;;5023086;28;20100;-72
2021/07/03 04:54:29;;;;;;;7.60;5.30;;;16.30;73.60;;;;;;5023991;28;20309;-74
2021/07/03 04:57:06;;;;;;;9.07;5.53;;;16.20;73.70;;;;;;5023638;28;20022;-72
2021/07/03 04:59:36;;;;;;;7.25;4.90;;;16.30;73.80;;;;;;5023724;28;20030;-73
2021/07/03 05:02:03;;;;;;;7.50;5.15;;;16.30;74.00;;;;;;5023469;28;20093;-72
2021/07/03 05:04:29;;;;;;;7.88;5.60;;;16.40;73.50;;;;;;5024711;28;20093;-73
2021/07/03 05:06:54;;;;;;;9.65;5.47;;;16.30;73.30;;;;;;5025394;28;20030;-72
2021/07/03 05:09:20;;;;;;;11.15;5.72;;;16.30;73.10;;;;;;5040140;28;20076;-72
2021/07/03 05:11:45;;;;;;;6.10;4.88;;;16.30;73.00;;;;;;5024447;28;20033;-75
2021/07/03 05:14:11;;;;;;;7.60;5.60;;;16.30;73.40;;;;;;5023575;28;20054;-72
2021/07/03 05:16:37;;;;;;;9.73;5.82;;;16.40;73.20;;;;;;5022520;28;20113;-73
2021/07/03 05:19:02;;;;;;;11.85;5.60;;;16.30;73.20;;;;;;5022386;28;20033;-74
2021/07/03 05:21:28;;;;;;;8.27;5.32;;;16.40;73.20;;;;;;5006507;28;20042;-75
2021/07/03 05:23:53;;;;;;;9.73;5.38;;;16.40;73.20;;;;;;5023487;28;20221;-73
2021/07/03 05:26:19;;;;;;;7.75;5.60;;;16.60;73.10;;;;;;5023135;28;20081;-73
2021/07/03 05:28:44;;;;;;;7.63;5.80;;;16.50;72.50;;;;;;5022584;28;20034;-73
2021/07/03 05:31:10;;;;;;;9.50;5.43;;;16.60;72.60;;;;;;5038956;28;20225;-73
2021/07/03 05:33:35;;;;;;;7.53;5.78;;;16.60;72.90;;;;;;5022713;28;20325;-72
2021/07/03 05:36:02;;;;;;;9.50;5.40;;;16.60;73.10;;;;;;5022986;28;20041;-73
2021/07/03 05:38:28;;;;;;;7.80;5.60;;;16.70;72.80;;;;;;5023969;28;20046;-72
2021/07/03 05:40:58;;;;;;;9.38;5.47;;;16.80;72.70;;;;;;5026461;28;20097;-73
2021/07/03 05:43:23;;;;;;;7.13;5.28;;;16.80;72.40;;;;;;5026733;28;20034;-72
2021/07/03 05:45:50;;;;;;;9.68;5.53;;;16.90;72.40;;;;;;5026340;28;20182;-71
2021/07/03 05:48:15;;;;;;;9.82;5.63;;;16.90;72.40;;;;;;5026741;28;20076;-72
2021/07/03 05:50:41;;;;;;;7.80;5.72;;;17.00;72.10;;;;;;5026159;28;20030;-73
2021/07/03 05:53:07;;;;;;;9.93;5.70;;;16.90;71.30;;;;;;5027410;28;20391;-73
2021/07/03 05:55:32;;;;;;;8.23;4.90;;;17.00;71.10;;;;;;5026359;28;20033;-75
2021/07/03 05:57:58;;;;;;;7.30;5.30;;;16.90;71.60;;;;;;5026186;28;20286;-75
2021/07/03 06:00:23;;;;;;;7.75;5.13;;;17.10;71.20;;;;;;5009618;28;20017;-75
2021/07/03 06:02:49;;;;;;;9.05;5.20;;;17.20;71.00;;;;;;5026641;28;20032;-73
2021/07/03 06:05:15;;;;;;;7.40;4.95;;;17.30;70.70;;;;;;5026630;28;20030;-72
2021/07/03 06:07:40;;;;;;;7.70;5.35;;;17.10;70.90;;;;;;5009374;28;20037;-73
2021/07/03 06:10:09;;;;;;;8.73;5.60;;;17.30;70.80;;;;;;5010496;28;20030;-74
2021/07/03 06:12:35;;;;;;;6.72;5.20;;;17.30;71.20;;;;;;5025659;28;20041;-75
2021/07/03 06:15:01;;;;;;;7.53;4.90;;;17.40;71.20;;;;;;5027556;28;20089;-77
2021/07/03 06:17:26;;;;;;;8.57;5.07;;;17.30;71.30;;;;;;5009609;28;20049;-77
2021/07/03 06:19:52;;;;;;;7.35;5.10;;;17.30;71.20;;;;;;5025709;28;20030;-75
2021/07/03 06:22:17;;;;;;;7.35;4.72;;;17.30;71.00;;;;;;5025804;28;20049;-72
2021/07/03 06:24:44;;;;;;;7.35;5.07;;;17.40;70.90;;;;;;5026503;28;20037;-75
2021/07/03 06:27:10;;;;;;;6.90;5.05;;;17.50;70.50;;;;;;5042503;28;20297;-74
2021/07/03 06:29:36;;;;;;;6.78;4.68;;;17.50;70.80;;;;;;5009195;28;20038;-73
2021/07/03 06:32:03;;;;;;;6.97;4.88;;;17.60;70.60;;;;;;5025875;28;20097;-78
2021/07/03 06:34:29;;;;;;;7.75;4.72;;;17.80;70.20;;;;;;5025724;28;20034;-75
2021/07/03 06:36:54;;;;;;;6.70;4.55;;;17.80;69.90;;;;;;5025562;28;20025;-74
2021/07/03 06:39:20;;;;;;;7.18;4.43;;;18.00;69.90;;;;;;5008846;28;20018;-75
2021/07/03 06:41:45;;;;;;;5.65;4.65;;;18.00;69.90;;;;;;5025963;28;20033;-75
2021/07/03 06:44:11;;;;;;;6.40;4.80;;;18.10;69.80;;;;;;5025520;28;20358;-75
2021/07/03 06:46:36;;;;;;;8.20;4.82;;;18.10;70.10;;;;;;5026515;28;20034;-76
2021/07/03 06:49:02;;;;;;;6.78;5.30;;;17.80;69.80;;;;;;5024963;28;20033;-76
2021/07/03 06:51:28;;;;;;;7.05;4.80;;;17.90;70.00;;;;;;5024185;28;20026;-76
2021/07/03 06:53:54;;;;;;;8.35;5.53;;;18.10;69.60;;;;;;5008941;28;20033;-77
2021/07/03 06:56:20;;;;;;;9.18;5.35;;;18.30;69.20;;;;;;5041698;28;20038;-76
2021/07/03 06:58:45;;;;;;;7.03;4.80;;;18.30;69.70;;;;;;5025833;28;20092;-76
2021/07/03 07:01:11;;;;;;;6.00;4.28;;;18.40;69.60;;;;;;5024924;28;20034;-74
2021/07/03 07:03:37;;;;;;;7.07;4.60;;;18.30;68.60;;;;;;5025848;28;20054;-76
2021/07/03 07:06:02;;;;;;;6.78;4.82;;;18.50;68.90;;;;;;5025629;28;20033;-75
2021/07/03 07:08:28;;;;;;;10.00;5.57;;;18.60;68.40;;;;;;5041725;28;20030;-77
2021/07/03 07:10:53;;;;;;;8.32;5.18;;;18.70;67.70;;;;;;5024992;28;20102;-76
2021/07/03 07:13:19;;;;;;;7.85;4.82;;;18.80;67.40;;;;;;5024976;28;20052;-75
2021/07/03 07:15:44;;;;;;;6.75;4.70;;;18.80;67.30;;;;;;5025069;28;20040;-71
2021/07/03 07:18:10;;;;;;;10.13;5.38;;;18.90;67.80;;;;;;5026117;28;20221;-75
2021/07/03 07:20:35;;;;;;;9.85;5.07;;;18.90;64.00;;;;;;5026289;28;20038;-72
2021/07/03 07:23:01;;;;;;;9.25;5.20;;;19.10;66.00;;;;;;5024642;28;20046;-75
2021/07/03 07:25:26;;;;;;;9.25;5.28;;;19.10;65.30;;;;;;5025694;28;20042;-75
2021/07/03 07:27:52;;;;;;;9.35;6.10;;;19.20;65.20;;;;;;5024259;28;20030;-76
2021/07/03 07:30:20;;;;;;;7.78;5.50;;;19.30;66.20;;;;;;5025388;28;20029;-72
2021/07/03 07:32:46;;;;;;;10.25;4.50;;;19.30;65.60;;;;;;5024682;28;20040;-74
2021/07/03 07:35:12;;;;;;;8.05;5.10;;;19.40;67.50;;;;;;5025772;28;20097;-74
2021/07/03 07:37:38;;;;;;;7.55;4.53;;;19.50;64.70;;;;;;5007713;28;20037;-74
2021/07/03 07:40:04;;;;;;;10.15;4.95;;;19.60;63.70;;;;;;5024154;28;20045;-73
2021/07/03 07:42:29;;;;;;;7.93;4.85;;;19.70;62.90;;;;;;5025303;28;20037;-74
2021/07/03 07:44:55;;;;;;;7.65;5.05;;;19.80;65.00;;;;;;5025563;28;20029;-74
2021/07/03 07:47:21;;;;;;;5.70;4.55;;;19.80;62.40;;;;;;5040584;28;20141;-71
2021/07/03 07:49:46;;;;;;;8.85;4.82;;;19.90;63.10;;;;;;5023810;28;20041;-73
2021/07/03 07:52:12;;;;;;;7.25;4.97;;;20.00;63.70;;;;;;5023834;28;20159;-74
2021/07/03 07:54:37;;;;;;;5.43;4.05;;;20.20;63.40;;;;;;5023732;28;20050;-71
2021/07/03 07:57:03;;;;;;;6.70;4.20;;;20.20;60.20;;;;;;5024520;28;20033;-72
2021/07/03 07:59:28;;;;;;;5.97;4.28;;;20.30;60.20;;;;;;5024199;28;20340;-71
2021/07/03 08:01:54;;;;;;;7.15;4.13;;;20.30;58.60;;;;;;5024227;28;20026;-71
2021/07/03 08:04:20;;;;;;;8.00;4.55;;;20.40;59.80;;;;;;5024847;28;20029;-73
2021/07/03 08:06:45;;;;;;;6.20;4.53;;;20.50;59.60;;;;;;5023635;28;20030;-72
2021/07/03 08:09:11;;;;;;;7.50;4.50;;;20.60;59.60;;;;;;5024077;28;20068;-71
2021/07/03 08:11:36;;;;;;;7.15;4.53;;;20.80;59.80;;;;;;5023943;28;20034;-71
2021/07/03 08:14:03;;;;;;;9.18;4.72;;;20.80;55.80;;;;;;5024748;28;20041;-72
2021/07/03 08:16:28;;;;;;;6.78;4.75;;;20.90;56.50;;;;;;5023828;28;20054;-73
2021/07/03 08:18:54;;;;;;;10.70;4.90;;;21.00;57.30;;;;;;5023391;28;20034;-73
2021/07/03 08:21:20;;;;;;;8.05;4.55;;;21.10;57.00;;;;;;5024274;28;20198;-75
2021/07/03 08:23:45;;;;;;;6.28;4.40;;;21.30;57.60;;;;;;5007854;28;20321;-74
2021/07/03 08:26:11;;;;;;;6.53;4.53;;;21.30;58.10;;;;;;5007269;28;20045;-75
2021/07/03 08:28:36;;;;;;;6.30;4.18;;;21.40;58.30;;;;;;5024355;28;20041;-74
2021/07/03 08:31:02;;;;;;;9.50;4.45;;;21.50;56.10;;;;;;5024166;28;20093;-75
2021/07/03 08:33:28;;;;;;;6.25;4.30;;;21.50;54.30;;;;;;5023125;28;20280;-77
2021/07/03 08:35:53;;;;;;;9.35;4.82;;;21.60;54.30;;;;;;5023643;28;20057;-72
2021/07/03 08:38:19;;;;;;;9.88;4.55;;;21.80;56.30;;;;;;5023661;28;20380;-76
2021/07/03 08:40:45;;;;;;;7.28;4.50;;;21.80;52.10;;;;;;5022983;28;20193;-72
2021/07/03 08:43:10;;;;;;;7.10;4.82;;;22.00;53.30;;;;;;5022450;28;20107;-72
2021/07/03 08:45:36;;;;;;;6.18;4.47;;;22.20;54.80;;;;;;5024002;28;20225;-73
2021/07/03 08:48:01;;;;;;;7.07;4.40;;;22.30;53.70;;;;;;5024800;28;20076;-73
2021/07/03 08:50:27;;;;;;;7.65;4.63;;;22.40;53.70;;;;;;5024442;28;20225;-72
2021/07/03 08:52:52;;;;;;;6.10;4.43;;;22.50;54.00;;;;;;5023392;28;20038;-73
2021/07/03 08:55:23;;;;;;;5.78;4.00;;;22.60;54.80;;;;;;5024170;28;20098;-75
2021/07/03 08:57:59;;;;;;;5.88;4.20;;;22.60;54.20;;;;;;5007057;28;20026;-73
2021/07/03 09:00:37;;;;;;;6.95;4.65;;;22.80;54.20;;;;;;5023970;28;20037;-72
2021/07/03 09:03:13;;;;;;;9.45;4.30;;;22.70;50.90;;;;;;5024383;28;20026;-73
2021/07/03 09:05:39;;;;;;;6.75;4.13;;;22.80;52.70;;;;;;5023391;28;20038;-78
2021/07/03 09:08:06;;;;;;;9.70;4.45;;;22.90;52.90;;;;;;5022608;28;20053;-77
2021/07/03 09:10:33;;;;;;;9.73;4.35;;;22.90;52.70;;;;;;5022922;28;20115;-75
2021/07/03 09:12:59;;;;;;;7.43;4.82;;;22.90;51.70;;;;;;5021937;28;20037;-76
2021/07/03 09:15:25;;;;;;;5.35;4.10;;;22.90;51.30;;;;;;5022480;28;20026;-77
2021/07/03 09:17:59;;;;;;;8.85;4.32;;;23.00;51.80;;;;;;5024227;28;20037;-76
2021/07/03 09:20:28;;;;;;;5.90;4.45;;;23.10;50.90;;;;;;5023150;28;20360;-79
2021/07/03 09:23:04;;;;;;;7.38;4.13;;;23.10;50.80;;;;;;5023882;28;20062;-76
2021/07/03 09:25:29;;;;;;;6.97;4.30;;;23.10;50.70;;;;;;5023139;28;20391;-79
2021/07/03 09:27:56;;;;;;;6.70;4.68;;;23.20;52.90;;;;;;5022615;28;20034;-77
2021/07/03 09:30:22;;;;;;;8.10;4.13;;;23.20;51.20;;;;;;5022569;28;20033;-73
2021/07/03 09:32:50;;;;;;;8.52;4.72;;;23.30;52.10;;;;;;5007470;28;20197;-72
2021/07/03 09:35:15;;;;;;;6.65;4.57;;;23.40;53.50;;;;;;5022999;28;20261;-74
2021/07/03 09:37:41;;;;;;;5.53;4.22;;;23.30;48.60;;;;;;5023546;28;20026;-72
2021/07/03 09:40:08;;;;;;;5.85;4.10;;;23.30;47.80;;;;;;5023575;28;20026;-73
2021/07/03 09:42:35;;;;;;;6.88;4.13;;;23.50;52.60;;;;;;5005783;28;20030;-73
2021/07/03 09:45:00;;;;;;;5.65;4.07;;;23.70;53.00;;;;;;5023426;28;20075;-74
2021/07/03 09:47:27;;;;;;;7.22;4.70;;;23.70;51.80;;;;;;5022751;28;20061;-73
2021/07/03 09:50:04;;;;;;;5.60;3.97;;;23.70;47.80;;;;;;5022361;28;20038;-73
2021/07/03 09:52:30;;;;;;;5.80;4.00;;;23.80;47.00;;;;;;5023367;28;20101;-75
2021/07/03 09:54:55;;;;;;;6.45;4.22;;;23.80;46.30;;;;;;5022166;28;20026;-74
2021/07/03 09:57:22;;;;;;;6.43;4.30;;;23.80;46.30;;;;;;5022273;28;20026;-72
2021/07/03 09:59:49;;;;;;;6.63;4.20;;;23.90;47.50;;;;;;5022649;28;20130;-73
2021/07/03 10:02:15;;;;;;;7.47;4.20;;;24.10;47.40;;;;;;5022855;28;20085;-68
2021/07/03 10:04:40;;;;;;;5.55;3.88;;;24.20;45.70;;;;;;5022513;28;20041;-72
2021/07/03 10:07:08;;;;;;;7.60;4.22;;;24.10;47.80;;;;;;5009372;28;20026;-72
2021/07/03 10:09:55;;;;;;;7.95;4.80;;;24.30;48.40;;;;;;5005788;28;20049;-71
2021/07/03 10:12:28;;;;;;;11.50;4.65;;;24.30;49.10;;;;;;5022084;28;20034;-71
2021/07/03 10:14:54;;;;;;;9.77;4.60;;;24.20;48.80;;;;;;5022809;28;20034;-72
2021/07/03 10:17:24;;;;;;;9.70;4.43;;;24.20;48.20;;;;;;5022533;28;20168;-72
2021/07/03 10:19:50;;;;;;;10.37;3.80;;;24.30;50.50;;;;;;5005875;28;20038;-70
2021/07/03 10:22:26;;;;;;;7.88;4.25;;;24.30;50.50;;;;;;5022132;28;20052;-70
2021/07/03 10:24:53;;;;;;;6.43;4.07;;;24.40;50.30;;;;;;5008776;28;20045;-71
2021/07/03 10:27:27;;;;;;;8.63;4.30;;;24.40;49.50;;;;;;5025623;28;20030;-72
2021/07/03 10:29:55;;;;;;;6.60;4.20;;;24.50;49.10;;;;;;5009658;28;20025;-75
2021/07/03 10:32:23;;;;;;;6.47;5.03;;;24.50;49.70;;;;;;5025618;28;20228;-72
2021/07/03 10:34:48;;;;;;;6.38;4.50;;;24.50;47.00;;;;;;5026516;28;20034;-71
2021/07/03 10:37:17;;;;;;;5.80;4.22;;;24.50;46.40;;;;;;5026383;28;20037;-70
2021/07/03 10:39:43;;;;;;;7.28;4.60;;;24.70;46.30;;;;;;5025964;28;20030;-69
2021/07/03 10:42:08;;;;;;;5.65;4.43;;;24.70;45.60;;;;;;5025967;28;20045;-70
2021/07/03 10:44:39;;;;;;;5.60;3.63;;;24.80;45.80;;;;;;5025589;28;20091;-69
2021/07/03 10:47:08;;;;;;;5.82;4.18;;;25.00;47.60;;;;;;5001850;28;20385;-70
2021/07/03 10:49:36;;;;;;;6.15;4.43;;;25.10;47.60;;;;;;5008554;28;20030;-71
2021/07/03 10:52:16;;;;;;;6.13;4.47;;;25.20;45.40;;;;;;5008523;28;20325;-70
2021/07/03 10:54:42;;;;;;;5.68;4.40;;;25.30;48.00;;;;;;5025336;28;20090;-69
2021/07/03 10:57:09;;;;;;;6.68;4.45;;;25.30;47.90;;;;;;5025611;28;20097;-71
2021/07/03 10:59:38;;;;;;;6.13;3.90;;;25.40;48.40;;;;;;5009099;28;20026;-72
2021/07/03 11:02:10;;;;;;;6.82;4.28;;;25.40;45.30;;;;;;5009039;28;20026;-69
2021/07/03 11:04:45;;;;;;;7.03;5.15;;;25.60;47.00;;;;;;5024919;28;20084;-71
2021/07/03 11:07:12;;;;;;;5.90;4.05;;;25.70;47.60;;;;;;5026108;28;20157;-71
2021/07/03 11:09:38;;;;;;;7.47;4.78;;;25.80;46.60;;;;;;5025049;28;20085;-70
2021/07/03 11:12:30;;;;;;;5.55;4.05;;;25.80;46.50;;;;;;5025406;28;20068;-70
2021/07/03 11:14:57;;;;;;;5.70;4.45;;;25.80;43.70;;;;;;5021040;28;20034;-71
2021/07/03 11:17:23;;;;;;;6.15;4.50;;;25.90;47.40;;;;;;5024936;28;20025;-73
2021/07/03 11:19:50;;;;;;;6.40;4.72;;;26.10;44.60;;;;;;5024809;28;20030;-70
2021/07/03 11:22:17;;;;;;;7.38;4.90;;;26.20;43.70;;;;;;5024072;28;20312;-71
2021/07/03 11:24:45;;;;;;;6.50;4.30;;;26.00;43.70;;;;;;5024106;28;20040;-70
2021/07/03 11:27:11;;;;;;;6.35;4.72;;;26.20;46.10;;;;;;5008308;28;20022;-71
2021/07/03 11:29:37;;;;;;;8.50;4.78;;;26.30;46.00;;;;;;5024698;28;20038;-71
2021/07/03 11:32:05;;;;;;;7.53;4.82;;;26.30;44.00;;;;;;5024540;28;20104;-70
2021/07/03 11:34:31;;;;;;;7.53;4.53;;;26.30;45.30;;;;;;5024702;28;20034;-70
2021/07/03 11:36:56;;;;;;;8.57;5.05;;;26.40;46.90;;;;;;5024589;28;20041;-70
2021/07/03 11:39:22;;;;;;;7.75;4.40;;;26.50;45.60;;;;;;5024595;28;20210;-71
2021/07/03 11:41:47;;;;;;;7.43;4.90;;;26.70;48.80;;;;;;5025886;28;20085;-71
2021/07/03 11:44:13;;;;;;;6.93;4.70;;;26.70;46.50;;;;;;5025427;28;20045;-71
2021/07/03 11:46:38;;;;;;;11.35;4.68;;;26.70;45.40;;;;;;5024943;28;20034;-71
2021/07/03 11:49:04;;;;;;;7.22;4.97;;;26.70;46.40;;;;;;5024081;28;20102;-71
2021/07/03 11:51:29;;;;;;;9.70;5.28;;;26.80;44.70;;;;;;5040124;28;20033;-71
2021/07/03 11:53:55;;;;;;;8.73;5.07;;;26.80;41.70;;;;;;5025311;28;20041;-70
2021/07/03 11:56:22;;;;;;;8.68;5.88;;;26.80;43.40;;;;;;5024312;28;20038;-71
2021/07/03 11:58:49;;;;;;;8.27;4.40;;;26.40;39.40;;;;;;5007779;28;20072;-71
2021/07/03 12:01:19;;;;;;;6.55;4.60;;;26.40;43.60;;;;;;5023926;28;20038;-71
2021/07/03 12:03:46;;;;;;;7.70;5.50;;;26.50;46.90;;;;;;5023836;28;20025;-71
2021/07/03 12:06:21;;;;;;;8.88;4.80;;;26.50;41.90;;;;;;5024404;28;20029;-71
2021/07/03 12:08:48;;;;;;;7.80;5.20;;;26.60;45.40;;;;;;5008417;28;20037;-71
2021/07/03 12:11:23;;;;;;;8.35;4.93;;;26.70;43.10;;;;;;5023775;28;20136;-71
2021/07/03 12:13:53;;;;;;;6.22;4.78;;;26.70;44.50;;;;;;5024446;28;20049;-71
2021/07/03 12:16:21;;;;;;;7.43;4.03;;;26.80;44.90;;;;;;5023859;28;20038;-71
2021/07/03 12:18:51;;;;;;;6.68;4.18;;;26.80;43.40;;;;;;5023366;28;20224;-70
2021/07/03 12:21:17;;;;;;;7.05;4.68;;;26.90;43.50;;;;;;5024003;28;20305;-71
2021/07/03 12:23:46;;;;;;;8.50;4.50;;;27.00;45.00;;;;;;5024837;28;20037;-70
2021/07/03 12:26:11;;;;;;;7.20;4.00;;;27.00;43.20;;;;;;5024310;28;20060;-71
2021/07/03 12:28:38;;;;;;;6.63;4.15;;;27.00;40.80;;;;;;5024432;28;20229;-71
2021/07/03 12:31:05;;;;;;;7.30;4.35;;;27.10;42.40;;;;;;5023224;28;20246;-71
2021/07/03 12:33:31;;;;;;;6.40;4.65;;;27.00;40.20;;;;;;5023056;28;20034;-71
2021/07/03 12:35:56;;;;;;;8.52;4.18;;;27.00;42.80;;;;;;5023752;28;20081;-71
2021/07/03 12:38:25;;;;;;;6.53;4.22;;;27.00;42.80;;;;;;5024499;28;20053;-71
2021/07/03 12:40:51;;;;;;;7.13;4.03;;;27.10;43.70;;;;;;5023083;28;20030;-71